sensor_id;sensor_type;location;lat;lon;timestamp;P1;durP1;ratioP1;P2;durP2;ratioP2
45392;SDS011;31129;44.810;10.334;2022-12-29T00:02:11;146.98;;;60.13;;
45392;SDS011;31129;44.810;10.334;2022-12-29T00:04:37;138.95;;;60.33;;
45392;SDS011;31129;44.810;10.334;2022-12-29T00:07:03;141.15;;;62.10;;
45392;SDS011;31129;44.810;10.334;2022-12-29T00:09:32;152.18;;;64.25;;
45392;SDS011;31129;44.810;10.334;2022-12-29T00:11:58;147.90;;;62.40;;
45392;SDS011;31129;44.810;10.334;2022-12-29T00:14:25;151.23;;;63.17;;
45392;SDS011;31129;44.810;10.334;2022-12-29T00:17:11;149.27;;;61.22;;
45392;SDS011;31129;44.810;10.334;2022-12-29T00:19:36;141.20;;;63.00;;
45392;SDS011;31129;44.810;10.334;2022-12-29T00:22:20;142.25;;;61.33;;
45392;SDS011;31129;44.810;10.334;2022-12-29T00:25:04;152.77;;;63.17;;
45392;SDS011;31129;44.810;10.334;2022-12-29T00:27:51;141.77;;;62.95;;
45392;SDS011;31129;44.810;10.334;2022-12-29T00:30:35;158.23;;;68.22;;
45392;SDS011;31129;44.810;10.334;2022-12-29T00:33:20;148.88;;;64.35;;
45392;SDS011;31129;44.810;10.334;2022-12-29T00:36:16;150.15;;;66.65;;
45392;SDS011;31129;44.810;10.334;2022-12-29T00:38:46;162.32;;;68.05;;
45392;SDS011;31129;44.810;10.334;2022-12-29T00:41:35;145.95;;;64.75;;
45392;SDS011;31129;44.810;10.334;2022-12-29T00:44:19;155.13;;;66.28;;
45392;SDS011;31129;44.810;10.334;2022-12-29T00:46:45;153.52;;;65.72;;
45392;SDS011;31129;44.810;10.334;2022-12-29T00:49:11;150.77;;;63.97;;
45392;SDS011;31129;44.810;10.334;2022-12-29T00:51:57;146.50;;;63.67;;
45392;SDS011;31129;44.810;10.334;2022-12-29T00:54:27;165.68;;;68.40;;
45392;SDS011;31129;44.810;10.334;2022-12-29T00:56:56;154.13;;;66.70;;
45392;SDS011;31129;44.810;10.334;2022-12-29T00:59:22;151.77;;;65.07;;
45392;SDS011;31129;44.810;10.334;2022-12-29T01:01:49;150.68;;;63.60;;
45392;SDS011;31129;44.810;10.334;2022-12-29T01:04:15;139.85;;;64.80;;
45392;SDS011;31129;44.810;10.334;2022-12-29T01:06:43;147.63;;;67.37;;
45392;SDS011;31129;44.810;10.334;2022-12-29T01:09:09;164.43;;;68.30;;
45392;SDS011;31129;44.810;10.334;2022-12-29T01:11:53;157.02;;;66.82;;
45392;SDS011;31129;44.810;10.334;2022-12-29T01:14:20;149.75;;;67.03;;
45392;SDS011;31129;44.810;10.334;2022-12-29T01:16:46;149.32;;;66.05;;
45392;SDS011;31129;44.810;10.334;2022-12-29T01:19:13;148.30;;;64.68;;
45392;SDS011;31129;44.810;10.334;2022-12-29T01:21:39;159.85;;;67.43;;
45392;SDS011;31129;44.810;10.334;2022-12-29T01:24:05;142.57;;;64.60;;
45392;SDS011;31129;44.810;10.334;2022-12-29T01:26:30;155.65;;;68.53;;
45392;SDS011;31129;44.810;10.334;2022-12-29T01:28:56;141.80;;;63.45;;
45392;SDS011;31129;44.810;10.334;2022-12-29T01:31:22;144.80;;;63.60;;
45392;SDS011;31129;44.810;10.334;2022-12-29T01:33:47;133.77;;;60.55;;
45392;SDS011;31129;44.810;10.334;2022-12-29T01:36:13;134.38;;;63.35;;
45392;SDS011;31129;44.810;10.334;2022-12-29T01:38:40;148.88;;;65.13;;
45392;SDS011;31129;44.810;10.334;2022-12-29T01:41:07;148.35;;;65.45;;
45392;SDS011;31129;44.810;10.334;2022-12-29T01:43:47;139.02;;;64.78;;
45392;SDS011;31129;44.810;10.334;2022-12-29T01:51:57;141.23;;;65.07;;
45392;SDS011;31129;44.810;10.334;2022-12-29T01:57:10;137.52;;;62.00;;
45392;SDS011;31129;44.810;10.334;2022-12-29T01:59:43;133.75;;;62.05;;
45392;SDS011;31129;44.810;10.334;2022-12-29T02:02:14;140.75;;;65.68;;
45392;SDS011;31129;44.810;10.334;2022-12-29T02:04:43;137.10;;;66.22;;
45392;SDS011;31129;44.810;10.334;2022-12-29T02:07:20;144.70;;;64.43;;
45392;SDS011;31129;44.810;10.334;2022-12-29T02:09:50;135.05;;;64.18;;
45392;SDS011;31129;44.810;10.334;2022-12-29T02:12:17;145.40;;;65.38;;
45392;SDS011;31129;44.810;10.334;2022-12-29T02:14:45;155.57;;;67.03;;
45392;SDS011;31129;44.810;10.334;2022-12-29T02:20:08;158.45;;;66.88;;
45392;SDS011;31129;44.810;10.334;2022-12-29T02:25:51;156.80;;;69.95;;
45392;SDS011;31129;44.810;10.334;2022-12-29T02:37:04;175.77;;;72.20;;
45392;SDS011;31129;44.810;10.334;2022-12-29T02:43:02;167.45;;;70.88;;
45392;SDS011;31129;44.810;10.334;2022-12-29T02:48:35;165.52;;;72.00;;
45392;SDS011;31129;44.810;10.334;2022-12-29T02:51:30;167.30;;;69.93;;
45392;SDS011;31129;44.810;10.334;2022-12-29T02:54:00;169.63;;;69.93;;
45392;SDS011;31129;44.810;10.334;2022-12-29T02:56:46;164.70;;;71.90;;
45392;SDS011;31129;44.810;10.334;2022-12-29T02:59:15;179.32;;;74.22;;
45392;SDS011;31129;44.810;10.334;2022-12-29T03:01:52;165.88;;;69.50;;
45392;SDS011;31129;44.810;10.334;2022-12-29T03:15:57;178.77;;;73.20;;
45392;SDS011;31129;44.810;10.334;2022-12-29T03:21:32;165.90;;;70.50;;
45392;SDS011;31129;44.810;10.334;2022-12-29T03:24:22;159.02;;;69.82;;
45392;SDS011;31129;44.810;10.334;2022-12-29T03:26:56;156.50;;;68.85;;
45392;SDS011;31129;44.810;10.334;2022-12-29T03:29:25;158.98;;;68.30;;
45392;SDS011;31129;44.810;10.334;2022-12-29T03:31:54;160.95;;;70.50;;
45392;SDS011;31129;44.810;10.334;2022-12-29T03:34:24;162.77;;;68.43;;
45392;SDS011;31129;44.810;10.334;2022-12-29T03:36:52;157.88;;;67.38;;
45392;SDS011;31129;44.810;10.334;2022-12-29T03:39:21;163.85;;;70.47;;
45392;SDS011;31129;44.810;10.334;2022-12-29T03:41:48;160.32;;;68.85;;
45392;SDS011;31129;44.810;10.334;2022-12-29T03:44:22;149.00;;;68.38;;
45392;SDS011;31129;44.810;10.334;2022-12-29T03:46:57;164.55;;;69.38;;
45392;SDS011;31129;44.810;10.334;2022-12-29T03:49:22;162.05;;;69.22;;
45392;SDS011;31129;44.810;10.334;2022-12-29T03:51:49;168.85;;;71.68;;
45392;SDS011;31129;44.810;10.334;2022-12-29T03:54:15;155.52;;;67.72;;
45392;SDS011;31129;44.810;10.334;2022-12-29T03:56:41;155.80;;;67.88;;
45392;SDS011;31129;44.810;10.334;2022-12-29T03:59:07;159.90;;;68.25;;
45392;SDS011;31129;44.810;10.334;2022-12-29T04:01:37;153.52;;;68.10;;
45392;SDS011;31129;44.810;10.334;2022-12-29T04:04:03;149.32;;;65.45;;
45392;SDS011;31129;44.810;10.334;2022-12-29T04:06:29;149.10;;;65.75;;
45392;SDS011;31129;44.810;10.334;2022-12-29T04:09:01;157.98;;;67.70;;
45392;SDS011;31129;44.810;10.334;2022-12-29T04:11:31;147.57;;;64.25;;
45392;SDS011;31129;44.810;10.334;2022-12-29T04:13:57;149.60;;;66.18;;
45392;SDS011;31129;44.810;10.334;2022-12-29T04:16:24;157.75;;;66.95;;
45392;SDS011;31129;44.810;10.334;2022-12-29T04:18:50;147.25;;;66.47;;
45392;SDS011;31129;44.810;10.334;2022-12-29T04:21:15;159.73;;;69.40;;
45392;SDS011;31129;44.810;10.334;2022-12-29T04:23:42;156.55;;;66.28;;
45392;SDS011;31129;44.810;10.334;2022-12-29T04:26:08;157.25;;;65.22;;
45392;SDS011;31129;44.810;10.334;2022-12-29T04:28:42;160.07;;;68.68;;
45392;SDS011;31129;44.810;10.334;2022-12-29T04:31:26;164.60;;;69.60;;
45392;SDS011;31129;44.810;10.334;2022-12-29T04:33:52;157.13;;;67.57;;
45392;SDS011;31129;44.810;10.334;2022-12-29T04:36:17;155.43;;;64.65;;
45392;SDS011;31129;44.810;10.334;2022-12-29T04:38:43;155.05;;;67.47;;
45392;SDS011;31129;44.810;10.334;2022-12-29T04:41:09;161.60;;;68.68;;
45392;SDS011;31129;44.810;10.334;2022-12-29T04:43:37;157.48;;;67.68;;
45392;SDS011;31129;44.810;10.334;2022-12-29T04:46:24;163.88;;;66.78;;
45392;SDS011;31129;44.810;10.334;2022-12-29T04:48:58;157.93;;;68.82;;
45392;SDS011;31129;44.810;10.334;2022-12-29T04:51:48;164.95;;;67.05;;
45392;SDS011;31129;44.810;10.334;2022-12-29T04:54:15;162.80;;;68.72;;
45392;SDS011;31129;44.810;10.334;2022-12-29T04:56:43;165.60;;;68.13;;
45392;SDS011;31129;44.810;10.334;2022-12-29T04:59:09;166.43;;;66.25;;
45392;SDS011;31129;44.810;10.334;2022-12-29T05:01:35;156.98;;;64.90;;
45392;SDS011;31129;44.810;10.334;2022-12-29T05:04:00;159.98;;;66.10;;
45392;SDS011;31129;44.810;10.334;2022-12-29T05:06:26;164.95;;;64.75;;
45392;SDS011;31129;44.810;10.334;2022-12-29T05:08:52;165.35;;;65.75;;
45392;SDS011;31129;44.810;10.334;2022-12-29T05:11:17;164.20;;;66.60;;
45392;SDS011;31129;44.810;10.334;2022-12-29T05:13:45;150.32;;;63.83;;
45392;SDS011;31129;44.810;10.334;2022-12-29T05:16:11;154.30;;;65.72;;
45392;SDS011;31129;44.810;10.334;2022-12-29T05:18:37;156.77;;;65.85;;
45392;SDS011;31129;44.810;10.334;2022-12-29T05:21:03;162.15;;;64.95;;
45392;SDS011;31129;44.810;10.334;2022-12-29T05:23:28;156.35;;;62.92;;
45392;SDS011;31129;44.810;10.334;2022-12-29T05:25:58;145.45;;;63.05;;
45392;SDS011;31129;44.810;10.334;2022-12-29T05:28:32;164.25;;;63.78;;
45392;SDS011;31129;44.810;10.334;2022-12-29T05:31:04;155.10;;;63.42;;
45392;SDS011;31129;44.810;10.334;2022-12-29T05:33:29;155.75;;;64.93;;
45392;SDS011;31129;44.810;10.334;2022-12-29T05:35:56;154.30;;;64.57;;
45392;SDS011;31129;44.810;10.334;2022-12-29T05:38:22;151.32;;;64.07;;
45392;SDS011;31129;44.810;10.334;2022-12-29T05:40:48;153.52;;;64.82;;
45392;SDS011;31129;44.810;10.334;2022-12-29T05:43:32;154.48;;;64.32;;
45392;SDS011;31129;44.810;10.334;2022-12-29T05:46:14;160.82;;;63.67;;
45392;SDS011;31129;44.810;10.334;2022-12-29T05:48:46;154.57;;;64.75;;
45392;SDS011;31129;44.810;10.334;2022-12-29T05:51:40;152.00;;;63.83;;
45392;SDS011;31129;44.810;10.334;2022-12-29T05:54:06;148.98;;;64.22;;
45392;SDS011;31129;44.810;10.334;2022-12-29T05:56:32;150.20;;;63.00;;
45392;SDS011;31129;44.810;10.334;2022-12-29T05:59:01;151.88;;;65.43;;
45392;SDS011;31129;44.810;10.334;2022-12-29T06:01:26;155.15;;;64.63;;
45392;SDS011;31129;44.810;10.334;2022-12-29T06:03:52;157.88;;;64.43;;
45392;SDS011;31129;44.810;10.334;2022-12-29T06:06:19;163.30;;;66.32;;
45392;SDS011;31129;44.810;10.334;2022-12-29T06:08:45;155.88;;;64.55;;
45392;SDS011;31129;44.810;10.334;2022-12-29T06:11:12;156.50;;;66.47;;
45392;SDS011;31129;44.810;10.334;2022-12-29T06:13:40;155.15;;;64.85;;
45392;SDS011;31129;44.810;10.334;2022-12-29T06:16:06;167.13;;;67.47;;
45392;SDS011;31129;44.810;10.334;2022-12-29T06:18:32;161.98;;;67.45;;
45392;SDS011;31129;44.810;10.334;2022-12-29T06:21:01;151.95;;;63.72;;
45392;SDS011;31129;44.810;10.334;2022-12-29T06:23:27;150.38;;;61.80;;
45392;SDS011;31129;44.810;10.334;2022-12-29T06:25:53;173.23;;;68.18;;
45392;SDS011;31129;44.810;10.334;2022-12-29T06:28:18;159.80;;;63.38;;
45392;SDS011;31129;44.810;10.334;2022-12-29T06:30:44;159.43;;;65.28;;
45392;SDS011;31129;44.810;10.334;2022-12-29T06:33:11;164.38;;;66.03;;
45392;SDS011;31129;44.810;10.334;2022-12-29T06:35:40;169.60;;;66.80;;
45392;SDS011;31129;44.810;10.334;2022-12-29T06:38:07;166.88;;;67.05;;
45392;SDS011;31129;44.810;10.334;2022-12-29T06:40:32;158.98;;;64.65;;
45392;SDS011;31129;44.810;10.334;2022-12-29T06:43:10;168.38;;;67.65;;
45392;SDS011;31129;44.810;10.334;2022-12-29T06:45:59;162.18;;;67.93;;
45392;SDS011;31129;44.810;10.334;2022-12-29T06:48:24;167.30;;;67.72;;
45392;SDS011;31129;44.810;10.334;2022-12-29T06:50:50;168.75;;;67.50;;
45392;SDS011;31129;44.810;10.334;2022-12-29T06:53:15;161.25;;;66.65;;
45392;SDS011;31129;44.810;10.334;2022-12-29T06:55:41;156.02;;;63.80;;
45392;SDS011;31129;44.810;10.334;2022-12-29T06:58:07;159.02;;;65.00;;
45392;SDS011;31129;44.810;10.334;2022-12-29T07:00:33;160.50;;;67.05;;
45392;SDS011;31129;44.810;10.334;2022-12-29T07:02:58;170.45;;;68.63;;
45392;SDS011;31129;44.810;10.334;2022-12-29T07:05:24;167.45;;;66.68;;
45392;SDS011;31129;44.810;10.334;2022-12-29T07:07:51;169.23;;;66.90;;
45392;SDS011;31129;44.810;10.334;2022-12-29T07:10:17;164.50;;;66.72;;
45392;SDS011;31129;44.810;10.334;2022-12-29T07:12:42;167.85;;;69.60;;
45392;SDS011;31129;44.810;10.334;2022-12-29T07:15:08;156.32;;;68.20;;
45392;SDS011;31129;44.810;10.334;2022-12-29T07:17:34;167.70;;;67.72;;
45392;SDS011;31129;44.810;10.334;2022-12-29T07:19:59;168.55;;;70.10;;
45392;SDS011;31129;44.810;10.334;2022-12-29T07:22:25;176.25;;;70.13;;
45392;SDS011;31129;44.810;10.334;2022-12-29T07:24:53;162.13;;;67.75;;
45392;SDS011;31129;44.810;10.334;2022-12-29T07:27:18;172.50;;;68.15;;
45392;SDS011;31129;44.810;10.334;2022-12-29T07:29:44;163.30;;;67.93;;
45392;SDS011;31129;44.810;10.334;2022-12-29T07:32:10;171.80;;;69.15;;
45392;SDS011;31129;44.810;10.334;2022-12-29T07:34:35;169.20;;;67.32;;
45392;SDS011;31129;44.810;10.334;2022-12-29T07:37:04;166.05;;;67.40;;
45392;SDS011;31129;44.810;10.334;2022-12-29T07:39:29;167.20;;;66.03;;
45392;SDS011;31129;44.810;10.334;2022-12-29T07:41:55;188.05;;;72.47;;
45392;SDS011;31129;44.810;10.334;2022-12-29T07:44:23;171.85;;;67.93;;
45392;SDS011;31129;44.810;10.334;2022-12-29T07:46:52;168.63;;;67.53;;
45392;SDS011;31129;44.810;10.334;2022-12-29T07:49:17;180.05;;;71.78;;
45392;SDS011;31129;44.810;10.334;2022-12-29T07:51:43;175.73;;;68.03;;
45392;SDS011;31129;44.810;10.334;2022-12-29T07:54:08;161.48;;;66.43;;
45392;SDS011;31129;44.810;10.334;2022-12-29T07:56:37;172.30;;;67.85;;
45392;SDS011;31129;44.810;10.334;2022-12-29T07:59:03;180.95;;;71.05;;
45392;SDS011;31129;44.810;10.334;2022-12-29T08:01:28;171.93;;;68.43;;
45392;SDS011;31129;44.810;10.334;2022-12-29T08:03:54;175.68;;;70.53;;
45392;SDS011;31129;44.810;10.334;2022-12-29T08:06:19;158.75;;;66.93;;
45392;SDS011;31129;44.810;10.334;2022-12-29T08:08:45;167.98;;;68.65;;
45392;SDS011;31129;44.810;10.334;2022-12-29T08:11:11;152.10;;;67.40;;
45392;SDS011;31129;44.810;10.334;2022-12-29T08:13:37;160.48;;;68.38;;
45392;SDS011;31129;44.810;10.334;2022-12-29T08:16:03;164.20;;;67.55;;
45392;SDS011;31129;44.810;10.334;2022-12-29T08:18:29;155.68;;;66.30;;
45392;SDS011;31129;44.810;10.334;2022-12-29T08:20:54;179.32;;;69.45;;
45392;SDS011;31129;44.810;10.334;2022-12-29T08:23:20;158.77;;;66.30;;
45392;SDS011;31129;44.810;10.334;2022-12-29T08:25:45;164.85;;;67.22;;
45392;SDS011;31129;44.810;10.334;2022-12-29T08:28:10;171.73;;;68.22;;
45392;SDS011;31129;44.810;10.334;2022-12-29T08:30:36;168.32;;;66.55;;
45392;SDS011;31129;44.810;10.334;2022-12-29T08:33:04;171.13;;;64.88;;
45392;SDS011;31129;44.810;10.334;2022-12-29T08:35:30;171.18;;;68.18;;
45392;SDS011;31129;44.810;10.334;2022-12-29T08:37:55;172.20;;;69.68;;
45392;SDS011;31129;44.810;10.334;2022-12-29T08:40:21;164.43;;;66.40;;
45392;SDS011;31129;44.810;10.334;2022-12-29T08:42:46;170.38;;;67.30;;
45392;SDS011;31129;44.810;10.334;2022-12-29T08:45:11;172.75;;;68.47;;
45392;SDS011;31129;44.810;10.334;2022-12-29T08:47:37;164.73;;;65.05;;
45392;SDS011;31129;44.810;10.334;2022-12-29T08:50:02;159.27;;;65.60;;
45392;SDS011;31129;44.810;10.334;2022-12-29T08:52:28;151.02;;;66.47;;
45392;SDS011;31129;44.810;10.334;2022-12-29T08:54:54;159.57;;;65.90;;
45392;SDS011;31129;44.810;10.334;2022-12-29T08:57:20;164.32;;;67.72;;
45392;SDS011;31129;44.810;10.334;2022-12-29T09:00:00;162.90;;;64.35;;
45392;SDS011;31129;44.810;10.334;2022-12-29T09:02:26;158.57;;;65.32;;
45392;SDS011;31129;44.810;10.334;2022-12-29T09:04:51;164.77;;;67.90;;
45392;SDS011;31129;44.810;10.334;2022-12-29T09:07:17;163.60;;;66.07;;
45392;SDS011;31129;44.810;10.334;2022-12-29T09:09:42;162.35;;;66.82;;
45392;SDS011;31129;44.810;10.334;2022-12-29T09:12:08;153.68;;;64.60;;
45392;SDS011;31129;44.810;10.334;2022-12-29T09:14:33;150.55;;;63.85;;
45392;SDS011;31129;44.810;10.334;2022-12-29T09:16:59;165.80;;;66.72;;
45392;SDS011;31129;44.810;10.334;2022-12-29T09:19:43;172.15;;;68.50;;
45392;SDS011;31129;44.810;10.334;2022-12-29T09:22:08;158.38;;;65.72;;
45392;SDS011;31129;44.810;10.334;2022-12-29T09:24:34;157.60;;;66.63;;
45392;SDS011;31129;44.810;10.334;2022-12-29T09:26:59;150.60;;;66.93;;
45392;SDS011;31129;44.810;10.334;2022-12-29T09:29:25;154.48;;;68.78;;
45392;SDS011;31129;44.810;10.334;2022-12-29T09:31:50;156.93;;;67.53;;
45392;SDS011;31129;44.810;10.334;2022-12-29T09:34:16;165.07;;;67.88;;
45392;SDS011;31129;44.810;10.334;2022-12-29T09:36:41;159.15;;;68.68;;
45392;SDS011;31129;44.810;10.334;2022-12-29T09:39:07;153.38;;;68.32;;
45392;SDS011;31129;44.810;10.334;2022-12-29T09:41:37;158.32;;;67.53;;
45392;SDS011;31129;44.810;10.334;2022-12-29T09:46:41;161.80;;;67.30;;
45392;SDS011;31129;44.810;10.334;2022-12-29T09:52:12;156.60;;;64.90;;
45392;SDS011;31129;44.810;10.334;2022-12-29T09:54:41;161.00;;;67.47;;
45392;SDS011;31129;44.810;10.334;2022-12-29T09:57:20;160.68;;;69.43;;
45392;SDS011;31129;44.810;10.334;2022-12-29T09:59:50;160.35;;;67.57;;
45392;SDS011;31129;44.810;10.334;2022-12-29T10:05:28;161.25;;;66.20;;
45392;SDS011;31129;44.810;10.334;2022-12-29T10:10:53;167.37;;;68.17;;
45392;SDS011;31129;44.810;10.334;2022-12-29T10:13:26;166.13;;;67.55;;
45392;SDS011;31129;44.810;10.334;2022-12-29T10:21:46;160.30;;;68.22;;
45392;SDS011;31129;44.810;10.334;2022-12-29T10:24:27;169.57;;;68.00;;
45392;SDS011;31129;44.810;10.334;2022-12-29T10:29:24;173.13;;;69.32;;
45392;SDS011;31129;44.810;10.334;2022-12-29T10:32:00;167.55;;;68.07;;
45392;SDS011;31129;44.810;10.334;2022-12-29T10:34:49;160.80;;;65.28;;
45392;SDS011;31129;44.810;10.334;2022-12-29T10:37:30;166.73;;;67.90;;
45392;SDS011;31129;44.810;10.334;2022-12-29T10:40:11;173.77;;;68.93;;
45392;SDS011;31129;44.810;10.334;2022-12-29T10:42:44;167.75;;;68.00;;
45392;SDS011;31129;44.810;10.334;2022-12-29T10:45:15;172.85;;;70.90;;
45392;SDS011;31129;44.810;10.334;2022-12-29T10:48:19;178.38;;;72.32;;
45392;SDS011;31129;44.810;10.334;2022-12-29T10:50:40;173.55;;;69.90;;
45392;SDS011;31129;44.810;10.334;2022-12-29T10:53:08;172.85;;;72.18;;
45392;SDS011;31129;44.810;10.334;2022-12-29T10:55:44;172.38;;;74.47;;
45392;SDS011;31129;44.810;10.334;2022-12-29T10:58:11;158.00;;;69.85;;
45392;SDS011;31129;44.810;10.334;2022-12-29T11:00:38;169.13;;;68.63;;
45392;SDS011;31129;44.810;10.334;2022-12-29T11:03:50;170.77;;;68.82;;
45392;SDS011;31129;44.810;10.334;2022-12-29T11:06:10;171.35;;;69.00;;
45392;SDS011;31129;44.810;10.334;2022-12-29T11:09:00;169.65;;;70.38;;
45392;SDS011;31129;44.810;10.334;2022-12-29T11:11:34;170.68;;;69.90;;
45392;SDS011;31129;44.810;10.334;2022-12-29T11:14:20;179.07;;;70.87;;
45392;SDS011;31129;44.810;10.334;2022-12-29T11:16:56;161.00;;;67.45;;
45392;SDS011;31129;44.810;10.334;2022-12-29T11:19:27;168.85;;;67.38;;
45392;SDS011;31129;44.810;10.334;2022-12-29T11:21:56;165.65;;;69.55;;
45392;SDS011;31129;44.810;10.334;2022-12-29T11:24:43;154.68;;;65.55;;
45392;SDS011;31129;44.810;10.334;2022-12-29T11:27:14;162.40;;;69.47;;
45392;SDS011;31129;44.810;10.334;2022-12-29T11:29:41;168.00;;;70.65;;
45392;SDS011;31129;44.810;10.334;2022-12-29T11:32:23;177.00;;;69.10;;
45392;SDS011;31129;44.810;10.334;2022-12-29T11:34:51;171.90;;;68.20;;
45392;SDS011;31129;44.810;10.334;2022-12-29T11:37:19;166.07;;;68.53;;
45392;SDS011;31129;44.810;10.334;2022-12-29T11:40:03;174.43;;;70.32;;
45392;SDS011;31129;44.810;10.334;2022-12-29T11:42:50;175.20;;;71.32;;
45392;SDS011;31129;44.810;10.334;2022-12-29T11:45:20;181.55;;;70.38;;
45392;SDS011;31129;44.810;10.334;2022-12-29T11:47:53;174.35;;;70.68;;
45392;SDS011;31129;44.810;10.334;2022-12-29T11:50:25;176.68;;;69.57;;
45392;SDS011;31129;44.810;10.334;2022-12-29T11:52:58;175.10;;;68.28;;
45392;SDS011;31129;44.810;10.334;2022-12-29T11:55:27;178.85;;;68.95;;
45392;SDS011;31129;44.810;10.334;2022-12-29T11:57:54;175.82;;;70.90;;
45392;SDS011;31129;44.810;10.334;2022-12-29T12:00:23;180.63;;;69.97;;
45392;SDS011;31129;44.810;10.334;2022-12-29T12:08:17;185.18;;;72.43;;
45392;SDS011;31129;44.810;10.334;2022-12-29T12:16:24;178.45;;;70.35;;
45392;SDS011;31129;44.810;10.334;2022-12-29T12:18:51;181.13;;;72.40;;
45392;SDS011;31129;44.810;10.334;2022-12-29T12:21:25;180.35;;;67.05;;
45392;SDS011;31129;44.810;10.334;2022-12-29T12:32:24;181.23;;;67.53;;
45392;SDS011;31129;44.810;10.334;2022-12-29T12:35:03;178.30;;;66.78;;
45392;SDS011;31129;44.810;10.334;2022-12-29T12:51:21;172.93;;;68.45;;
45392;SDS011;31129;44.810;10.334;2022-12-29T13:05:26;137.23;;;58.13;;
45392;SDS011;31129;44.810;10.334;2022-12-29T13:08:07;148.23;;;59.55;;
45392;SDS011;31129;44.810;10.334;2022-12-29T13:16:06;160.57;;;65.55;;
45392;SDS011;31129;44.810;10.334;2022-12-29T13:24:01;148.80;;;61.95;;
45392;SDS011;31129;44.810;10.334;2022-12-29T13:31:55;169.43;;;70.00;;
45392;SDS011;31129;44.810;10.334;2022-12-29T13:36:59;159.18;;;67.40;;
45392;SDS011;31129;44.810;10.334;2022-12-29T13:39:37;161.65;;;67.60;;
45392;SDS011;31129;44.810;10.334;2022-12-29T13:42:06;166.70;;;69.00;;
45392;SDS011;31129;44.810;10.334;2022-12-29T13:47:13;179.63;;;70.07;;
45392;SDS011;31129;44.810;10.334;2022-12-29T13:49:40;167.27;;;68.38;;
45392;SDS011;31129;44.810;10.334;2022-12-29T13:52:19;164.98;;;65.45;;
45392;SDS011;31129;44.810;10.334;2022-12-29T13:55:07;160.23;;;61.70;;
45392;SDS011;31129;44.810;10.334;2022-12-29T14:00:12;157.18;;;65.47;;
45392;SDS011;31129;44.810;10.334;2022-12-29T14:05:31;168.18;;;65.70;;
45392;SDS011;31129;44.810;10.334;2022-12-29T14:07:58;154.77;;;65.75;;
45392;SDS011;31129;44.810;10.334;2022-12-29T14:15:37;155.45;;;64.13;;
45392;SDS011;31129;44.810;10.334;2022-12-29T14:18:14;161.38;;;65.15;;
45392;SDS011;31129;44.810;10.334;2022-12-29T14:20:48;170.80;;;69.53;;
45392;SDS011;31129;44.810;10.334;2022-12-29T14:23:26;168.85;;;66.93;;
45392;SDS011;31129;44.810;10.334;2022-12-29T14:25:54;161.07;;;66.78;;
45392;SDS011;31129;44.810;10.334;2022-12-29T14:28:25;144.55;;;63.88;;
45392;SDS011;31129;44.810;10.334;2022-12-29T14:31:00;143.30;;;59.25;;
45392;SDS011;31129;44.810;10.334;2022-12-29T14:33:28;155.57;;;63.60;;
45392;SDS011;31129;44.810;10.334;2022-12-29T14:35:55;165.15;;;66.43;;
45392;SDS011;31129;44.810;10.334;2022-12-29T14:38:23;151.70;;;63.13;;
45392;SDS011;31129;44.810;10.334;2022-12-29T14:43:23;152.50;;;62.58;;
45392;SDS011;31129;44.810;10.334;2022-12-29T14:45:55;150.65;;;63.03;;
45392;SDS011;31129;44.810;10.334;2022-12-29T14:48:30;154.25;;;64.80;;
45392;SDS011;31129;44.810;10.334;2022-12-29T14:50:59;154.07;;;65.10;;
45392;SDS011;31129;44.810;10.334;2022-12-29T14:56:12;166.52;;;65.63;;
45392;SDS011;31129;44.810;10.334;2022-12-29T14:58:44;160.88;;;62.30;;
45392;SDS011;31129;44.810;10.334;2022-12-29T15:01:17;155.57;;;61.95;;
45392;SDS011;31129;44.810;10.334;2022-12-29T15:03:51;156.63;;;61.63;;
45392;SDS011;31129;44.810;10.334;2022-12-29T15:06:21;146.48;;;59.72;;
45392;SDS011;31129;44.810;10.334;2022-12-29T15:09:05;153.70;;;59.65;;
45392;SDS011;31129;44.810;10.334;2022-12-29T15:17:32;127.85;;;53.33;;
45392;SDS011;31129;44.810;10.334;2022-12-29T15:19:59;122.38;;;52.33;;
45392;SDS011;31129;44.810;10.334;2022-12-29T15:22:26;127.63;;;53.38;;
45392;SDS011;31129;44.810;10.334;2022-12-29T15:24:53;127.63;;;53.25;;
45392;SDS011;31129;44.810;10.334;2022-12-29T15:27:23;130.10;;;52.72;;
45392;SDS011;31129;44.810;10.334;2022-12-29T15:29:57;137.32;;;56.88;;
45392;SDS011;31129;44.810;10.334;2022-12-29T15:32:28;133.77;;;54.42;;
45392;SDS011;31129;44.810;10.334;2022-12-29T15:34:55;131.93;;;54.78;;
45392;SDS011;31129;44.810;10.334;2022-12-29T15:39:54;119.45;;;50.85;;
45392;SDS011;31129;44.810;10.334;2022-12-29T15:42:30;129.48;;;52.53;;
45392;SDS011;31129;44.810;10.334;2022-12-29T15:44:57;123.63;;;50.67;;
45392;SDS011;31129;44.810;10.334;2022-12-29T15:47:26;125.22;;;50.92;;
45392;SDS011;31129;44.810;10.334;2022-12-29T15:52:47;131.93;;;55.80;;
45392;SDS011;31129;44.810;10.334;2022-12-29T15:55:18;129.85;;;53.08;;
45392;SDS011;31129;44.810;10.334;2022-12-29T15:57:46;130.10;;;53.80;;
45392;SDS011;31129;44.810;10.334;2022-12-29T16:00:45;136.13;;;54.50;;
45392;SDS011;31129;44.810;10.334;2022-12-29T16:03:04;135.15;;;52.25;;
45392;SDS011;31129;44.810;10.334;2022-12-29T16:05:34;136.45;;;54.30;;
45392;SDS011;31129;44.810;10.334;2022-12-29T16:08:02;129.57;;;52.30;;
45392;SDS011;31129;44.810;10.334;2022-12-29T16:10:45;128.55;;;52.45;;
45392;SDS011;31129;44.810;10.334;2022-12-29T16:15:56;135.15;;;54.00;;
45392;SDS011;31129;44.810;10.334;2022-12-29T16:18:27;127.63;;;53.00;;
45392;SDS011;31129;44.810;10.334;2022-12-29T16:20:55;146.98;;;54.78;;
45392;SDS011;31129;44.810;10.334;2022-12-29T16:23:23;140.02;;;55.22;;
45392;SDS011;31129;44.810;10.334;2022-12-29T16:25:51;145.35;;;56.97;;
45392;SDS011;31129;44.810;10.334;2022-12-29T16:28:40;135.82;;;54.88;;
45392;SDS011;31129;44.810;10.334;2022-12-29T16:31:22;142.48;;;56.42;;
45392;SDS011;31129;44.810;10.334;2022-12-29T16:41:53;135.20;;;55.28;;
45392;SDS011;31129;44.810;10.334;2022-12-29T16:44:26;133.90;;;54.88;;
45392;SDS011;31129;44.810;10.334;2022-12-29T16:49:31;141.27;;;57.55;;
45392;SDS011;31129;44.810;10.334;2022-12-29T16:51:57;141.77;;;57.30;;
45392;SDS011;31129;44.810;10.334;2022-12-29T16:54:30;129.55;;;56.17;;
45392;SDS011;31129;44.810;10.334;2022-12-29T16:56:58;142.43;;;57.22;;
45392;SDS011;31129;44.810;10.334;2022-12-29T16:59:31;134.65;;;57.03;;
45392;SDS011;31129;44.810;10.334;2022-12-29T17:02:00;149.65;;;60.55;;
45392;SDS011;31129;44.810;10.334;2022-12-29T17:04:30;150.13;;;62.38;;
45392;SDS011;31129;44.810;10.334;2022-12-29T17:06:56;156.57;;;65.18;;